createdAt,value
2018-12-16T00:01:40.184Z,101231.47
2018-12-16T00:04:09.299Z,101238.76
2018-12-16T00:06:38.599Z,101239.76
2018-12-16T00:09:07.361Z,101235.93
2018-12-16T00:11:36.147Z,101232.47
2018-12-16T00:14:05.318Z,101231.73
2018-12-16T00:16:34.730Z,101229.33
2018-12-16T00:19:03.548Z,101231.88
2018-12-16T00:21:32.324Z,101231.00
2018-12-16T00:24:01.174Z,101232.23
2018-12-16T00:26:40.967Z,101235.28
2018-12-16T00:29:09.827Z,101229.81
2018-12-16T00:31:38.620Z,101216.45
2018-12-16T00:34:07.406Z,101220.15
2018-12-16T00:36:36.226Z,101227.27
2018-12-16T00:39:05.823Z,101227.00
2018-12-16T00:41:34.634Z,101227.48
2018-12-16T00:44:03.434Z,101222.70
2018-12-16T00:46:32.288Z,101211.69
2018-12-16T00:49:01.094Z,101219.07
2018-12-16T00:51:29.919Z,101208.36
2018-12-16T00:53:58.730Z,101204.04
2018-12-16T00:56:27.523Z,101195.66
2018-12-16T00:58:56.310Z,101194.56
2018-12-16T01:01:25.112Z,101190.34
2018-12-16T01:03:53.919Z,101190.06
2018-12-16T01:06:22.779Z,101182.78
2018-12-16T01:08:51.583Z,101188.38
2018-12-16T01:11:20.385Z,101182.64
2018-12-16T01:13:50.069Z,101172.41
2018-12-16T01:16:18.862Z,101167.89
2018-12-16T01:18:47.659Z,101163.35
2018-12-16T01:21:16.436Z,101157.89
2018-12-16T01:23:45.226Z,101150.61
2018-12-16T01:26:14.026Z,101158.89
2018-12-16T01:28:42.839Z,101151.51
2018-12-16T01:31:11.671Z,101149.88
2018-12-16T01:33:40.472Z,101146.73
2018-12-16T01:36:09.245Z,101147.83
2018-12-16T01:38:38.035Z,101152.78
2018-12-16T01:41:06.843Z,101152.42
2018-12-16T01:43:35.625Z,101148.38
2018-12-16T01:46:04.411Z,101146.83
2018-12-16T01:48:33.212Z,101148.78
2018-12-16T01:51:01.992Z,101140.64
2018-12-16T01:53:31.678Z,101136.27
2018-12-16T01:56:00.479Z,101127.89
2018-12-16T01:58:29.384Z,101128.48
2018-12-16T02:00:58.151Z,101122.63
2018-12-16T02:03:26.949Z,101111.60
2018-12-16T02:05:55.763Z,101118.11
2018-12-16T02:08:26.160Z,101116.84
2018-12-16T02:10:53.367Z,101107.02
2018-12-16T02:13:22.227Z,101109.93
2018-12-16T02:15:51.035Z,101100.64
2018-12-16T02:18:19.858Z,101091.55
2018-12-16T02:20:48.659Z,101080.27
2018-12-16T02:23:17.465Z,101077.86
2018-12-16T02:25:46.258Z,101067.47
2018-12-16T02:28:15.168Z,101068.70
2018-12-16T02:30:43.993Z,101067.20
2018-12-16T02:33:12.793Z,101057.01
2018-12-16T02:35:41.573Z,101055.42
2018-12-16T02:38:10.440Z,101047.77
2018-12-16T02:40:39.268Z,101045.05
2018-12-16T02:43:08.118Z,101042.09
2018-12-16T02:45:37.402Z,101042.03
2018-12-16T02:48:06.206Z,101038.34
2018-12-16T02:50:35.008Z,101034.56
2018-12-16T02:53:04.805Z,101032.11
2018-12-16T02:55:32.892Z,101033.87
2018-12-16T02:58:01.688Z,101023.13
2018-12-16T03:00:30.994Z,101016.94
2018-12-16T03:03:00.770Z,101014.93
2018-12-16T03:05:30.245Z,101012.44
2018-12-16T03:07:59.016Z,101010.39
2018-12-16T03:10:27.815Z,100996.74
2018-12-16T03:12:56.677Z,100989.50
2018-12-16T03:15:25.536Z,100976.86
2018-12-16T03:17:54.471Z,100990.77
2018-12-16T03:20:23.368Z,100993.73
2018-12-16T03:22:52.159Z,100986.09
2018-12-16T03:25:20.963Z,100987.22
2018-12-16T03:27:49.760Z,100990.81
2018-12-16T03:30:18.570Z,100985.58
2018-12-16T03:32:47.348Z,100981.89
2018-12-16T03:35:16.138Z,100980.57
2018-12-16T03:37:45.718Z,100981.30
2018-12-16T03:40:14.515Z,100976.48
2018-12-16T03:42:43.628Z,100982.48
2018-12-16T03:45:12.510Z,100972.39
2018-12-16T03:47:41.358Z,100974.94
2018-12-16T03:50:10.316Z,100979.41
2018-12-16T03:52:39.106Z,100976.27
2018-12-16T03:55:08.038Z,100966.81
2018-12-16T03:57:36.821Z,100967.04
2018-12-16T04:00:06.879Z,100963.53
2018-12-16T04:02:35.691Z,100950.42
2018-12-16T04:05:04.564Z,100955.97
2018-12-16T04:07:33.680Z,100951.41
2018-12-16T04:10:02.471Z,100955.34
2018-12-16T04:12:31.928Z,100945.89
2018-12-16T04:15:00.792Z,100952.37
2018-12-16T04:17:30.284Z,100955.48
2018-12-16T04:19:59.075Z,100951.16
2018-12-16T04:22:27.943Z,100944.44
2018-12-16T04:24:56.738Z,100950.67
2018-12-16T04:27:25.666Z,100947.22
2018-12-16T04:29:54.531Z,100946.80
2018-12-16T04:32:23.336Z,100946.80
2018-12-16T04:34:52.130Z,100953.16
2018-12-16T04:37:20.964Z,100951.47
2018-12-16T04:39:49.769Z,100945.23
2018-12-16T04:42:18.567Z,100947.95
2018-12-16T04:44:47.429Z,100939.17
2018-12-16T04:47:16.325Z,100939.11
2018-12-16T04:49:45.126Z,100941.52
2018-12-16T04:52:13.938Z,100948.01
2018-12-16T04:54:42.835Z,100944.98
2018-12-16T04:57:11.620Z,100946.06
2018-12-16T04:59:40.435Z,100948.75
2018-12-16T05:02:09.262Z,100945.53
2018-12-16T05:04:38.059Z,100939.51
2018-12-16T05:07:06.843Z,100939.51
2018-12-16T05:09:35.656Z,100922.09
2018-12-16T05:12:04.456Z,100925.31
2018-12-16T05:14:33.293Z,100924.72
2018-12-16T05:17:02.099Z,100920.52
2018-12-16T05:19:30.878Z,100923.55
2018-12-16T05:21:59.788Z,100924.83
2018-12-16T05:24:28.599Z,100925.36
2018-12-16T05:26:57.715Z,100923.25
2018-12-16T05:29:26.508Z,100908.73
2018-12-16T05:31:55.313Z,100911.95
2018-12-16T05:34:24.099Z,100914.50
2018-12-16T05:36:52.915Z,100912.86
2018-12-16T05:39:21.716Z,100908.33
2018-12-16T05:41:50.532Z,100913.06
2018-12-16T05:44:19.328Z,100907.52
2018-12-16T05:46:49.080Z,100906.79
2018-12-16T05:49:18.128Z,100908.97
2018-12-16T05:51:46.992Z,100907.27
2018-12-16T05:54:15.901Z,100901.55
2018-12-16T05:56:44.703Z,100902.83
2018-12-16T05:59:13.507Z,100906.42
2018-12-16T06:01:42.350Z,100909.14
2018-12-16T06:04:11.130Z,100917.83
2018-12-16T06:06:39.983Z,100911.76
2018-12-16T06:09:08.769Z,100908.64
2018-12-16T06:11:37.644Z,100900.59
2018-12-16T06:14:06.446Z,100904.58
2018-12-16T06:16:35.806Z,100903.67
2018-12-16T06:19:04.046Z,100903.84
2018-12-16T06:21:33.237Z,100908.10
2018-12-16T06:24:02.027Z,100904.28
2018-12-16T06:26:30.895Z,100909.14
2018-12-16T06:28:59.750Z,100898.94
2018-12-16T06:31:28.542Z,100896.62
2018-12-16T06:33:57.399Z,100903.53
2018-12-16T06:36:26.178Z,100900.98
2018-12-16T06:38:55.032Z,100906.59
2018-12-16T06:41:23.836Z,100899.91
2018-12-16T06:43:52.655Z,100902.63
2018-12-16T06:46:21.947Z,100898.73
2018-12-16T06:48:50.779Z,100894.98
2018-12-16T06:51:19.582Z,100893.12
2018-12-16T06:53:48.375Z,100894.70
2018-12-16T06:56:17.175Z,100899.20
2018-12-16T06:58:46.019Z,100900.17
2018-12-16T07:01:16.024Z,100903.63
2018-12-16T07:03:43.648Z,100917.43
2018-12-16T07:06:12.514Z,100912.99
2018-12-16T07:08:42.608Z,100916.38
2018-12-16T07:11:11.426Z,100909.64
2018-12-16T07:13:40.242Z,100914.30
2018-12-16T07:16:09.049Z,100922.99
2018-12-16T07:18:37.848Z,100923.53
2018-12-16T07:21:06.660Z,100917.80
2018-12-16T07:23:35.490Z,100930.35
2018-12-16T07:26:04.313Z,100921.19
2018-12-16T07:28:33.621Z,100924.03
2018-12-16T07:31:02.448Z,100928.09
2018-12-16T07:33:31.484Z,100933.50
2018-12-16T07:36:00.345Z,100924.13
2018-12-16T07:38:29.848Z,100932.33
2018-12-16T07:40:58.651Z,100936.08
2018-12-16T07:43:27.473Z,100932.39
2018-12-16T07:45:56.244Z,100934.57
2018-12-16T07:48:25.065Z,100921.81
2018-12-16T07:50:53.886Z,100933.30
2018-12-16T07:53:22.786Z,100937.25
2018-12-16T07:55:51.608Z,100934.87
2018-12-16T07:58:20.454Z,100933.77
2018-12-16T08:00:49.278Z,100927.28
2018-12-16T08:03:18.097Z,100926.98
2018-12-16T08:05:47.538Z,100927.82
2018-12-16T08:08:16.317Z,100932.41
2018-12-16T08:10:45.131Z,100927.53
2018-12-16T08:13:16.518Z,100938.41
2018-12-16T08:15:45.885Z,100939.52
2018-12-16T08:18:14.677Z,100938.31
2018-12-16T08:20:43.526Z,100944.12
2018-12-16T08:23:12.508Z,100949.90
2018-12-16T08:25:41.303Z,100958.02
2018-12-16T08:28:10.099Z,100954.32
2018-12-16T08:30:38.928Z,100956.30
2018-12-16T08:33:07.974Z,100955.23
2018-12-16T08:35:36.726Z,100961.91
2018-12-16T08:38:05.511Z,100963.72
2018-12-16T08:40:34.357Z,100968.99
2018-12-16T08:43:03.639Z,100958.70
2018-12-16T08:45:33.196Z,100964.48
2018-12-16T08:48:01.990Z,100965.96
2018-12-16T08:50:33.483Z,100968.14
2018-12-16T08:53:02.580Z,100974.33
2018-12-16T08:55:32.605Z,100970.79
2018-12-16T08:58:01.477Z,100965.02
2018-12-16T09:00:30.880Z,100965.39
2018-12-16T09:02:59.731Z,100956.95
2018-12-16T09:05:30.226Z,100952.17
2018-12-16T09:07:59.486Z,100959.91
2018-12-16T09:10:34.125Z,100958.69
2018-12-16T09:12:57.150Z,100959.30
2018-12-16T09:15:25.947Z,100957.78
2018-12-16T09:17:54.779Z,100966.81
2018-12-16T09:20:23.624Z,100965.38
2018-12-16T09:22:52.768Z,100967.03
2018-12-16T09:25:21.619Z,100962.51
2018-12-16T09:27:50.411Z,100971.38
2018-12-16T09:30:19.351Z,100969.73
2018-12-16T09:32:48.226Z,100974.02
2018-12-16T09:35:17.019Z,100978.34
2018-12-16T09:37:45.929Z,100976.78
2018-12-16T09:40:14.763Z,100980.74
2018-12-16T09:42:43.743Z,100975.58
2018-12-16T09:45:12.727Z,100975.14
2018-12-16T09:47:41.572Z,100974.36
2018-12-16T09:50:11.182Z,100976.41
2018-12-16T09:52:40.238Z,100971.14
2018-12-16T09:55:09.057Z,100973.94
2018-12-16T09:57:37.854Z,100979.95
2018-12-16T10:00:07.941Z,100971.01
2018-12-16T10:02:37.514Z,100970.31
2018-12-16T10:05:07.487Z,100973.00
2018-12-16T10:07:36.991Z,100978.27
2018-12-16T10:10:09.015Z,100984.12
2018-12-16T10:12:37.931Z,100990.22
2018-12-16T10:15:06.983Z,100998.18
2018-12-16T10:17:36.360Z,100990.89
2018-12-16T10:20:06.141Z,100995.14
2018-12-16T10:22:35.054Z,100994.08
2018-12-16T10:25:04.138Z,100986.70
2018-12-16T10:27:33.218Z,100987.39
2018-12-16T10:30:02.122Z,100982.77
2018-12-16T10:32:32.479Z,100980.67
2018-12-16T10:35:00.084Z,100984.12
2018-12-16T10:37:29.811Z,100987.51
2018-12-16T10:39:58.832Z,100985.98
2018-12-16T10:42:27.750Z,100994.11
2018-12-16T10:44:56.556Z,100985.52
2018-12-16T10:47:25.628Z,100984.80
2018-12-16T10:49:55.080Z,100987.98
2018-12-16T10:52:23.911Z,100988.94
2018-12-16T10:54:58.411Z,100985.42
2018-12-16T10:57:21.615Z,100986.08
2018-12-16T10:59:50.443Z,100977.04
2018-12-16T11:02:20.246Z,100979.51
2018-12-16T11:04:49.076Z,100974.30
2018-12-16T11:07:17.979Z,100971.75
2018-12-16T11:09:46.780Z,100966.63
2018-12-16T11:12:15.569Z,100971.75
2018-12-16T11:14:44.369Z,100967.56
2018-12-16T11:17:13.172Z,100962.89
2018-12-16T11:19:42.005Z,100963.17
2018-12-16T11:22:10.891Z,100958.39
2018-12-16T11:24:39.756Z,100961.17
2018-12-16T11:27:08.535Z,100958.70
2018-12-16T11:29:37.340Z,100960.70
2018-12-16T11:32:06.137Z,100964.28
2018-12-16T11:34:34.934Z,100964.60
2018-12-16T11:37:03.821Z,100970.50
2018-12-16T11:39:32.698Z,100961.45
2018-12-16T11:42:01.555Z,100962.42
2018-12-16T11:44:30.355Z,100961.05
2018-12-16T11:46:59.230Z,100960.52
2018-12-16T11:49:28.046Z,100959.11
2018-12-16T11:51:57.157Z,100957.70
2018-12-16T11:54:25.947Z,100952.49
2018-12-16T11:56:54.747Z,100944.34
2018-12-16T11:59:23.568Z,100947.97
2018-12-16T12:01:52.362Z,100948.89
2018-12-16T12:04:21.183Z,100948.05
2018-12-16T12:06:50.001Z,100947.89
2018-12-16T12:09:18.923Z,100943.73
2018-12-16T12:11:47.899Z,100935.33
2018-12-16T12:14:16.871Z,100933.59
2018-12-16T12:16:45.634Z,100932.20
2018-12-16T12:19:14.420Z,100935.35
2018-12-16T12:21:43.275Z,100946.67
2018-12-16T12:24:12.103Z,100944.28
2018-12-16T12:26:40.905Z,100941.23
2018-12-16T12:29:09.707Z,100937.14
2018-12-16T12:31:38.636Z,100949.58
2018-12-16T12:34:07.752Z,100944.61
2018-12-16T12:36:36.565Z,100946.53
2018-12-16T12:39:05.822Z,100947.91
2018-12-16T12:41:34.618Z,100945.09
2018-12-16T12:44:03.471Z,100952.04
2018-12-16T12:46:32.283Z,100947.72
2018-12-16T12:49:01.076Z,100947.87
2018-12-16T12:51:30.219Z,100949.80
2018-12-16T12:53:59.071Z,100950.70
2018-12-16T12:56:27.899Z,100951.98
2018-12-16T12:58:56.746Z,100940.56
2018-12-16T13:01:25.680Z,100935.86
2018-12-16T13:03:54.488Z,100938.47
2018-12-16T13:06:23.287Z,100944.23
2018-12-16T13:08:52.163Z,100951.97
2018-12-16T13:11:21.028Z,100943.27
2018-12-16T13:13:50.734Z,100947.33
2018-12-16T13:16:19.543Z,100947.60
2018-12-16T13:18:48.336Z,100951.45
2018-12-16T13:21:17.216Z,100947.75
2018-12-16T13:23:46.000Z,100952.50
2018-12-16T13:26:14.788Z,100954.31
2018-12-16T13:28:43.661Z,100956.61
2018-12-16T13:31:12.444Z,100960.98
2018-12-16T13:33:41.224Z,100959.45
2018-12-16T13:36:11.006Z,100954.47
2018-12-16T13:38:39.825Z,100954.58
2018-12-16T13:41:08.631Z,100954.09
2018-12-16T13:43:37.732Z,100944.21
2018-12-16T13:46:06.535Z,100939.58
2018-12-16T13:48:35.624Z,100945.23
2018-12-16T13:51:04.415Z,100952.17
2018-12-16T13:53:33.257Z,100957.15
2018-12-16T13:56:02.077Z,100963.06
2018-12-16T13:58:30.839Z,100966.27
2018-12-16T14:00:59.649Z,100968.95
2018-12-16T14:03:28.450Z,100971.02
2018-12-16T14:05:57.240Z,100975.25
2018-12-16T14:08:26.333Z,100964.84
2018-12-16T14:10:55.185Z,100967.41
2018-12-16T14:13:24.099Z,100969.48
2018-12-16T14:15:52.983Z,100979.47
2018-12-16T14:18:21.835Z,100978.19
2018-12-16T14:20:50.630Z,100980.48
2018-12-16T14:23:19.963Z,100985.24
2018-12-16T14:25:48.754Z,100988.48
2018-12-16T14:28:17.584Z,100985.51
2018-12-16T14:30:46.424Z,100990.64
2018-12-16T14:33:15.258Z,100982.08
2018-12-16T14:35:44.995Z,100988.19
2018-12-16T14:38:12.915Z,100990.48
2018-12-16T14:40:41.722Z,100988.45
2018-12-16T14:43:10.555Z,100989.98
2018-12-16T14:45:39.402Z,100988.93
2018-12-16T14:48:08.320Z,100982.14
2018-12-16T14:50:37.104Z,100988.17
2018-12-16T14:53:05.908Z,100983.80
2018-12-16T14:55:34.756Z,100982.14
2018-12-16T14:58:03.558Z,100991.88
2018-12-16T15:00:32.359Z,100994.59
2018-12-16T15:03:01.164Z,100995.98
2018-12-16T15:05:30.000Z,100991.16
2018-12-16T15:07:58.778Z,100986.52
2018-12-16T15:10:27.999Z,100984.75
2018-12-16T15:12:56.856Z,100987.58
2018-12-16T15:15:25.888Z,100990.14
2018-12-16T15:17:54.668Z,100998.44
2018-12-16T15:20:23.525Z,101006.24
2018-12-16T15:22:52.426Z,101005.87
2018-12-16T15:25:21.228Z,101014.23
2018-12-16T15:27:50.016Z,101023.59
2018-12-16T15:30:18.818Z,101022.69
2018-12-16T15:32:47.611Z,101019.48
2018-12-16T15:35:16.450Z,101028.30
2018-12-16T15:37:45.333Z,101018.05
2018-12-16T15:40:14.130Z,101022.05
2018-12-16T15:42:42.918Z,101024.45
2018-12-16T15:45:11.724Z,101025.09
2018-12-16T15:47:40.615Z,101029.09
2018-12-16T15:50:09.850Z,101024.98
2018-12-16T15:52:38.734Z,101029.43
2018-12-16T15:55:09.779Z,101038.93
2018-12-16T15:57:38.562Z,101044.21
2018-12-16T16:00:07.662Z,101039.20
2018-12-16T16:02:36.495Z,101040.32
2018-12-16T16:05:05.521Z,101035.93
2018-12-16T16:07:34.404Z,101035.67
2018-12-16T16:10:03.609Z,101039.78
2018-12-16T16:12:32.467Z,101042.03
2018-12-16T16:15:01.300Z,101048.22
2018-12-16T16:17:30.193Z,101046.89
2018-12-16T16:19:59.008Z,101051.06
2018-12-16T16:22:27.952Z,101047.63
2018-12-16T16:24:56.937Z,101044.16
2018-12-16T16:27:25.718Z,101050.42
2018-12-16T16:29:54.500Z,101051.17
2018-12-16T16:32:23.353Z,101055.92
2018-12-16T16:34:52.275Z,101049.25
2018-12-16T16:37:21.153Z,101052.98
2018-12-16T16:39:50.478Z,101051.33
2018-12-16T16:42:19.315Z,101056.73
2018-12-16T16:44:48.126Z,101058.91
2018-12-16T16:47:17.106Z,101062.38
2018-12-16T16:49:46.063Z,101061.38
2018-12-16T16:52:14.859Z,101061.11
2018-12-16T16:54:43.687Z,101052.92
2018-12-16T16:57:12.488Z,101047.00
2018-12-16T16:59:42.163Z,101050.95
2018-12-16T17:02:10.959Z,101054.42
2018-12-16T17:04:40.887Z,101057.52
2018-12-16T17:07:09.695Z,101056.23
2018-12-16T17:09:39.083Z,101061.11
2018-12-16T17:12:07.881Z,101066.02
2018-12-16T17:14:37.380Z,101057.94
2018-12-16T17:17:06.227Z,101063.56
2018-12-16T17:19:35.011Z,101068.20
2018-12-16T17:22:03.852Z,101068.48
2018-12-16T17:24:32.627Z,101075.27
2018-12-16T17:27:01.426Z,101070.66
2018-12-16T17:29:30.328Z,101077.08
2018-12-16T17:31:59.140Z,101076.28
2018-12-16T17:34:27.935Z,101078.09
2018-12-16T17:36:56.734Z,101078.63
2018-12-16T17:39:26.201Z,101079.16
2018-12-16T17:41:54.989Z,101089.69
2018-12-16T17:44:23.840Z,101098.41
2018-12-16T17:46:53.959Z,101099.05
2018-12-16T17:49:22.878Z,101101.23
2018-12-16T17:51:51.827Z,101106.38
2018-12-16T17:54:20.674Z,101102.03
2018-12-16T17:56:49.480Z,101104.33
2018-12-16T17:59:18.336Z,101102.52
2018-12-16T18:01:47.138Z,101111.01
2018-12-16T18:04:16.099Z,101110.48
2018-12-16T18:06:44.903Z,101112.30
2018-12-16T18:09:13.808Z,101106.38
2018-12-16T18:11:43.085Z,101103.31
2018-12-16T18:14:11.902Z,101095.61
2018-12-16T18:16:40.698Z,101106.75
2018-12-16T18:19:09.479Z,101109.31
2018-12-16T18:21:38.330Z,101109.84
2018-12-16T18:24:07.123Z,101117.54
2018-12-16T18:26:35.926Z,101117.91
2018-12-16T18:29:04.719Z,101122.45
2018-12-16T18:31:33.619Z,101128.98
2018-12-16T18:34:02.505Z,101124.60
2018-12-16T18:36:31.273Z,101133.88
2018-12-16T18:39:00.155Z,101131.81
2018-12-16T18:41:28.945Z,101135.81
2018-12-16T18:43:57.762Z,101133.99
2018-12-16T18:46:26.511Z,101138.34
2018-12-16T18:48:55.315Z,101136.14
2018-12-16T18:51:24.113Z,101140.00
2018-12-16T18:53:53.102Z,101142.34
2018-12-16T18:56:21.986Z,101137.44
2018-12-16T18:58:50.778Z,101139.24
2018-12-16T19:01:19.585Z,101137.05
2018-12-16T19:03:48.380Z,101148.59
2018-12-16T19:06:20.194Z,101147.70
2018-12-16T19:08:48.982Z,101141.28
2018-12-16T19:11:17.765Z,101147.20
2018-12-16T19:13:46.593Z,101138.34
2018-12-16T19:16:15.375Z,101143.09
2018-12-16T19:18:44.181Z,101145.66
2018-12-16T19:21:12.955Z,101147.20
2018-12-16T19:23:41.807Z,101148.70
2018-12-16T19:26:10.588Z,101151.80
2018-12-16T19:28:39.362Z,101151.80
2018-12-16T19:31:08.165Z,101153.61
2018-12-16T19:33:37.103Z,101160.03
2018-12-16T19:36:05.893Z,101162.59
2018-12-16T19:38:34.692Z,101168.48
2018-12-16T19:41:03.467Z,101163.61
2018-12-16T19:43:32.296Z,101165.01
2018-12-16T19:46:01.080Z,101165.16
2018-12-16T19:48:29.899Z,101169.28
2018-12-16T19:50:58.739Z,101169.28
2018-12-16T19:53:27.531Z,101171.70
2018-12-16T19:55:56.394Z,101174.64
2018-12-16T19:58:25.190Z,101176.98
2018-12-16T20:00:54.975Z,101173.66
2018-12-16T20:03:23.811Z,101178.38
2018-12-16T20:05:58.005Z,101175.44
2018-12-16T20:08:26.790Z,101175.06
2018-12-16T20:10:55.597Z,101182.23
2018-12-16T20:13:24.383Z,101180.95
2018-12-16T20:15:53.252Z,101183.02
2018-12-16T20:18:22.123Z,101189.06
2018-12-16T20:20:50.919Z,101189.81
2018-12-16T20:23:19.720Z,101188.53
2018-12-16T20:25:48.500Z,101193.66
2018-12-16T20:28:17.282Z,101201.73
2018-12-16T20:30:46.077Z,101195.70
2018-12-16T20:33:14.884Z,101193.77
2018-12-16T20:35:43.671Z,101198.25
2018-12-16T20:38:13.030Z,101198.25
2018-12-16T20:40:41.835Z,101197.72
2018-12-16T20:43:10.623Z,101200.01
2018-12-16T20:45:39.414Z,101198.73
2018-12-16T20:48:08.259Z,101200.92
2018-12-16T20:50:37.042Z,101208.52
2018-12-16T20:53:05.869Z,101211.08
2018-12-16T20:55:34.671Z,101211.95
2018-12-16T20:58:03.454Z,101195.78
2018-12-16T21:00:32.419Z,101206.59
2018-12-16T21:03:01.931Z,101206.22
2018-12-16T21:05:30.801Z,101204.68
2018-12-16T21:07:59.605Z,101203.86
2018-12-16T21:10:28.471Z,101216.26
2018-12-16T21:13:03.788Z,101219.20
2018-12-16T21:15:38.003Z,101223.42
2018-12-16T21:18:12.169Z,101221.86
2018-12-16T21:20:40.958Z,101223.14
2018-12-16T21:23:09.738Z,101227.91
2018-12-16T21:25:38.569Z,101221.23
2018-12-16T21:28:07.463Z,101213.80
2018-12-16T21:30:37.636Z,101215.02
2018-12-16T21:33:06.433Z,101209.12
2018-12-16T21:35:35.260Z,101204.47
2018-12-16T21:38:04.116Z,101206.77
2018-12-16T21:40:32.934Z,101207.84
2018-12-16T21:43:01.670Z,101208.43
2018-12-16T21:45:31.247Z,101201.62
2018-12-16T21:48:00.039Z,101210.54
2018-12-16T21:50:28.819Z,101207.98
2018-12-16T21:52:57.603Z,101209.26
2018-12-16T21:55:26.411Z,101226.84
2018-12-16T21:57:55.205Z,101236.09
2018-12-16T22:00:24.060Z,101239.31
2018-12-16T22:02:52.903Z,101245.32
2018-12-16T22:05:25.851Z,101240.66
2018-12-16T22:07:54.636Z,101241.03
2018-12-16T22:10:23.447Z,101226.22
2018-12-16T22:12:52.898Z,101230.59
2018-12-16T22:15:21.803Z,101223.53
2018-12-16T22:17:50.642Z,101228.94
2018-12-16T22:20:20.011Z,101227.13
2018-12-16T22:22:48.810Z,101228.66
2018-12-16T22:25:17.600Z,101234.75
2018-12-16T22:27:46.391Z,101239.76
2018-12-16T22:30:15.922Z,101242.44
2018-12-16T22:32:45.571Z,101247.36
2018-12-16T22:35:14.365Z,101240.66
2018-12-16T22:37:43.161Z,101249.45
2018-12-16T22:40:11.948Z,101250.28
2018-12-16T22:42:41.558Z,101246.19
2018-12-16T22:45:10.330Z,101262.77
2018-12-16T22:47:39.119Z,101267.52
2018-12-16T22:50:07.927Z,101262.92
2018-12-16T22:52:36.725Z,101267.95
2018-12-16T22:55:06.363Z,101276.84
2018-12-16T22:57:35.189Z,101280.59
2018-12-16T23:00:04.059Z,101281.50
2018-12-16T23:02:32.947Z,101283.00
2018-12-16T23:05:01.816Z,101293.04
2018-12-16T23:07:30.708Z,101291.76
2018-12-16T23:09:59.498Z,101284.06
2018-12-16T23:12:28.276Z,101286.75
2018-12-16T23:14:57.050Z,101282.50
2018-12-16T23:17:25.880Z,101286.72
2018-12-16T23:20:28.627Z,101281.97
2018-12-16T23:22:57.762Z,101277.05
2018-12-16T23:25:26.556Z,101268.08
2018-12-16T23:27:55.412Z,101266.80
2018-12-16T23:30:24.268Z,101267.80
2018-12-16T23:32:53.063Z,101274.74
2018-12-16T23:35:21.928Z,101279.50
2018-12-16T23:37:50.698Z,101272.17
2018-12-16T23:40:26.148Z,101268.49
2018-12-16T23:42:54.924Z,101275.77
2018-12-16T23:45:23.806Z,101273.99
2018-12-16T23:47:52.599Z,101268.61
2018-12-16T23:50:21.393Z,101261.55
2018-12-16T23:52:50.276Z,101259.45
2018-12-16T23:55:19.141Z,101263.95
2018-12-16T23:57:47.896Z,101254.61
